createdAt,value
2022-10-10T00:01:24.926Z,84.36
2022-10-10T00:03:51.906Z,84.21
2022-10-10T00:06:18.700Z,84.17
2022-10-10T00:08:46.106Z,84.23
2022-10-10T00:11:14.762Z,84.38
2022-10-10T00:13:42.170Z,84.13
2022-10-10T00:16:10.246Z,84.38
2022-10-10T00:18:37.637Z,84.57
2022-10-10T00:21:05.057Z,84.66
2022-10-10T00:23:31.853Z,84.38
2022-10-10T00:25:59.300Z,84.27
2022-10-10T00:28:26.426Z,84.35
2022-10-10T00:30:53.460Z,84.55
2022-10-10T00:33:20.394Z,84.24
2022-10-10T00:35:48.319Z,84.46
2022-10-10T00:38:15.162Z,84.17
2022-10-10T00:40:50.767Z,84.31
2022-10-10T00:43:18.632Z,84.33
2022-10-10T00:45:47.247Z,84.70
2022-10-10T00:48:22.751Z,84.68
2022-10-10T00:51:12.443Z,84.45
2022-10-10T00:54:02.310Z,84.23
2022-10-10T00:56:36.246Z,84.41
2022-10-10T00:59:06.150Z,84.68
2022-10-10T01:01:33.147Z,84.53
2022-10-10T01:04:01.927Z,84.72
2022-10-10T01:06:29.587Z,84.57
2022-10-10T01:08:57.314Z,84.77
2022-10-10T01:11:32.972Z,84.44
2022-10-10T01:14:18.995Z,84.65
2022-10-10T01:16:54.458Z,84.58
2022-10-10T01:20:03.847Z,84.75
2022-10-10T01:22:49.893Z,84.65
2022-10-10T01:25:29.276Z,84.72
2022-10-10T01:28:03.806Z,84.68
2022-10-10T01:30:31.262Z,84.29
2022-10-10T01:33:22.049Z,84.20
2022-10-10T01:36:20.958Z,84.10
2022-10-10T01:39:01.663Z,84.07
2022-10-10T01:41:36.804Z,84.04
2022-10-10T01:44:03.664Z,83.94
2022-10-10T01:46:32.522Z,84.11
2022-10-10T01:49:00.738Z,84.34
2022-10-10T01:52:01.662Z,84.31
2022-10-10T01:54:45.755Z,84.66
2022-10-10T01:57:47.616Z,84.46
2022-10-10T02:00:17.646Z,84.60
2022-10-10T02:02:56.208Z,85.09
2022-10-10T02:05:36.522Z,84.82
2022-10-10T02:08:05.387Z,84.98
2022-10-10T02:10:35.782Z,84.71
2022-10-10T02:13:05.208Z,85.06
2022-10-10T02:15:43.092Z,85.31
2022-10-10T02:18:14.901Z,85.34
2022-10-10T02:20:43.821Z,85.31
2022-10-10T02:23:16.019Z,85.26
2022-10-10T02:25:47.681Z,85.51
2022-10-10T02:28:57.443Z,85.44
2022-10-10T02:31:37.488Z,85.54
2022-10-10T02:34:27.403Z,85.51
2022-10-10T02:37:01.585Z,85.93
2022-10-10T02:39:33.476Z,85.64
2022-10-10T02:42:00.293Z,86.06
2022-10-10T02:44:28.003Z,85.94
2022-10-10T02:46:54.837Z,85.65
2022-10-10T02:49:28.571Z,85.78
2022-10-10T02:51:55.333Z,86.05
2022-10-10T02:54:22.134Z,85.87
2022-10-10T02:56:48.919Z,86.20
2022-10-10T02:59:15.770Z,86.31
2022-10-10T03:01:42.501Z,86.47
2022-10-10T03:04:09.341Z,86.58
2022-10-10T03:06:36.440Z,86.30
2022-10-10T03:09:04.519Z,86.24
2022-10-10T03:11:31.421Z,86.27
2022-10-10T03:13:58.193Z,86.16
2022-10-10T03:16:25.011Z,86.53
2022-10-10T03:18:52.604Z,86.02
2022-10-10T03:21:19.500Z,86.56
2022-10-10T03:23:46.255Z,86.29
2022-10-10T03:26:13.400Z,86.62
2022-10-10T03:28:40.296Z,86.48
2022-10-10T03:31:07.110Z,86.67
2022-10-10T03:33:35.120Z,86.86
2022-10-10T03:36:02.011Z,86.70
2022-10-10T03:38:28.816Z,86.95
2022-10-10T03:40:55.644Z,86.73
2022-10-10T03:43:22.418Z,86.82
2022-10-10T03:45:49.487Z,86.77
2022-10-10T03:48:16.774Z,86.52
2022-10-10T03:50:43.682Z,86.85
2022-10-10T03:53:12.573Z,86.55
2022-10-10T03:55:40.902Z,86.44
2022-10-10T03:58:08.528Z,86.54
2022-10-10T04:00:35.690Z,86.72
2022-10-10T04:03:06.422Z,86.66
2022-10-10T04:05:36.091Z,86.59
2022-10-10T04:08:03.475Z,86.93
2022-10-10T04:10:30.313Z,87.07
2022-10-10T04:12:57.415Z,87.09
2022-10-10T04:15:25.530Z,87.25
2022-10-10T04:17:52.199Z,86.79
2022-10-10T04:20:19.351Z,87.21
2022-10-10T04:22:46.102Z,87.19
2022-10-10T04:25:12.858Z,87.03
2022-10-10T04:27:39.670Z,87.11
2022-10-10T04:30:07.517Z,87.09
2022-10-10T04:32:34.302Z,87.23
2022-10-10T04:35:01.064Z,87.08
2022-10-10T04:37:28.003Z,86.94
2022-10-10T04:39:55.403Z,87.45
2022-10-10T04:42:22.603Z,87.40
2022-10-10T04:44:49.447Z,87.20
2022-10-10T04:47:16.196Z,87.31
2022-10-10T04:49:42.964Z,87.14
2022-10-10T04:52:10.393Z,87.50
2022-10-10T04:54:37.692Z,87.15
2022-10-10T04:57:05.008Z,87.19
2022-10-10T04:59:31.848Z,87.21
2022-10-10T05:02:01.676Z,87.52
2022-10-10T05:04:28.914Z,87.37
2022-10-10T05:06:55.696Z,87.31
2022-10-10T05:09:22.496Z,87.41
2022-10-10T05:11:49.299Z,87.22
2022-10-10T05:14:15.952Z,87.65
2022-10-10T05:16:42.770Z,87.52
2022-10-10T05:19:09.495Z,87.74
2022-10-10T05:21:36.265Z,87.45
2022-10-10T05:24:03.811Z,87.68
2022-10-10T05:26:30.664Z,87.62
2022-10-10T05:28:57.601Z,87.83
2022-10-10T05:31:24.477Z,87.56
2022-10-10T05:33:51.335Z,87.87
2022-10-10T05:36:18.153Z,87.95
2022-10-10T05:38:44.926Z,87.70
2022-10-10T05:41:12.782Z,87.51
2022-10-10T05:43:39.732Z,87.88
2022-10-10T05:46:06.785Z,88.05
2022-10-10T05:48:33.954Z,88.28
2022-10-10T05:51:01.642Z,87.90
2022-10-10T05:53:30.348Z,87.88
2022-10-10T05:55:57.987Z,87.70
2022-10-10T05:58:26.597Z,87.35
2022-10-10T06:00:53.822Z,87.80
2022-10-10T06:03:20.605Z,87.82
2022-10-10T06:05:50.559Z,87.88
2022-10-10T06:08:17.287Z,88.12
2022-10-10T06:10:45.811Z,87.69
2022-10-10T06:13:14.788Z,88.08
2022-10-10T06:15:42.254Z,88.26
2022-10-10T06:18:09.467Z,88.00
2022-10-10T06:20:41.009Z,88.19
2022-10-10T06:23:08.929Z,88.29
2022-10-10T06:25:41.473Z,88.13
2022-10-10T06:28:10.682Z,88.27
2022-10-10T06:30:44.597Z,88.48
2022-10-10T06:33:12.826Z,88.45
2022-10-10T06:35:42.050Z,88.13
2022-10-10T06:38:09.602Z,88.22
2022-10-10T06:40:36.308Z,88.60
2022-10-10T06:43:04.781Z,88.83
2022-10-10T06:45:31.666Z,88.76
2022-10-10T06:47:58.481Z,88.27
2022-10-10T06:50:25.400Z,88.51
2022-10-10T06:52:52.547Z,88.47
2022-10-10T06:55:19.549Z,88.40
2022-10-10T06:57:46.426Z,88.40
2022-10-10T07:00:14.628Z,88.88
2022-10-10T07:02:41.538Z,88.65
2022-10-10T07:05:12.155Z,88.90
2022-10-10T07:07:40.444Z,88.90
2022-10-10T07:10:09.121Z,88.72
2022-10-10T07:12:43.534Z,88.86
2022-10-10T07:15:11.966Z,88.80
2022-10-10T07:17:38.812Z,88.56
2022-10-10T07:20:06.072Z,88.58
2022-10-10T07:22:33.290Z,88.40
2022-10-10T07:25:00.255Z,88.15
2022-10-10T07:27:27.338Z,88.40
2022-10-10T07:29:54.408Z,88.26
2022-10-10T07:32:21.383Z,88.28
2022-10-10T07:34:48.135Z,88.08
2022-10-10T07:37:15.067Z,87.96
2022-10-10T07:39:41.959Z,87.78
2022-10-10T07:42:08.747Z,87.53
2022-10-10T07:44:35.570Z,87.24
2022-10-10T07:47:02.310Z,87.15
2022-10-10T07:49:29.217Z,86.98
2022-10-10T07:51:58.872Z,86.65
2022-10-10T07:54:27.711Z,86.51
2022-10-10T07:56:54.513Z,86.55
2022-10-10T07:59:22.647Z,86.45
2022-10-10T08:01:50.497Z,86.30
2022-10-10T08:04:18.071Z,86.33
2022-10-10T08:06:44.823Z,86.08
2022-10-10T08:09:11.839Z,86.38
2022-10-10T08:11:38.742Z,86.34
2022-10-10T08:14:05.865Z,86.37
2022-10-10T08:16:32.800Z,86.46
2022-10-10T08:18:59.642Z,86.47
2022-10-10T08:21:26.601Z,86.53
2022-10-10T08:23:53.501Z,86.35
2022-10-10T08:26:20.488Z,86.33
2022-10-10T08:28:48.849Z,86.15
2022-10-10T08:31:19.304Z,86.23
2022-10-10T08:33:46.836Z,86.19
2022-10-10T08:36:16.292Z,85.93
2022-10-10T08:38:43.730Z,86.00
2022-10-10T08:41:35.062Z,85.80
2022-10-10T08:44:13.543Z,85.29
2022-10-10T08:46:50.509Z,84.54
2022-10-10T08:49:42.285Z,84.31
2022-10-10T08:52:30.006Z,84.09
2022-10-10T08:54:58.746Z,84.41
2022-10-10T08:58:06.174Z,83.68
2022-10-10T09:00:39.623Z,82.90
2022-10-10T09:03:20.900Z,82.42
2022-10-10T09:06:19.682Z,81.78
2022-10-10T09:09:17.735Z,82.27
2022-10-10T09:12:02.518Z,81.83
2022-10-10T09:14:35.287Z,80.93
2022-10-10T09:17:02.018Z,81.33
2022-10-10T09:19:43.039Z,81.36
2022-10-10T09:22:16.652Z,81.40
2022-10-10T09:24:43.766Z,81.10
2022-10-10T09:27:16.549Z,80.70
2022-10-10T09:29:52.953Z,80.73
2022-10-10T09:32:30.600Z,80.83
2022-10-10T09:35:12.822Z,80.94
2022-10-10T09:37:48.838Z,80.90
2022-10-10T09:40:30.345Z,80.64
2022-10-10T09:42:57.490Z,80.69
2022-10-10T09:45:52.475Z,80.11
2022-10-10T09:48:22.810Z,80.18
2022-10-10T09:50:49.778Z,80.28
2022-10-10T09:53:17.354Z,80.33
2022-10-10T09:55:46.589Z,80.64
2022-10-10T09:58:23.879Z,80.82
2022-10-10T10:00:51.284Z,80.01
2022-10-10T10:03:21.192Z,80.35
2022-10-10T10:06:00.522Z,79.95
2022-10-10T10:08:34.076Z,79.32
2022-10-10T10:11:02.492Z,79.39
2022-10-10T10:13:35.527Z,79.07
2022-10-10T10:16:06.997Z,78.69
2022-10-10T10:18:44.982Z,78.34
2022-10-10T10:21:23.653Z,78.71
2022-10-10T10:23:50.683Z,77.97
2022-10-10T10:26:22.720Z,77.80
2022-10-10T10:28:51.734Z,77.97
2022-10-10T10:31:46.190Z,77.55
2022-10-10T10:34:31.635Z,77.90
2022-10-10T10:37:40.661Z,77.53
2022-10-10T10:40:22.722Z,77.31
2022-10-10T10:43:01.645Z,76.67
2022-10-10T10:45:43.140Z,76.28
2022-10-10T10:48:29.402Z,76.56
2022-10-10T10:51:05.567Z,75.83
2022-10-10T10:53:49.261Z,75.78
2022-10-10T10:56:37.726Z,76.20
2022-10-10T11:02:31.219Z,75.70
2022-10-10T11:05:39.943Z,76.66
2022-10-10T11:08:28.895Z,76.54
2022-10-10T11:11:18.401Z,75.43
2022-10-10T11:13:51.187Z,75.23
2022-10-10T11:16:47.386Z,75.78
2022-10-10T11:19:13.941Z,75.45
2022-10-10T11:22:13.511Z,75.51
2022-10-10T11:24:46.015Z,75.58
2022-10-10T11:27:42.536Z,75.80
2022-10-10T11:30:21.182Z,76.32
2022-10-10T11:33:02.462Z,75.52
2022-10-10T11:35:38.293Z,74.91
2022-10-10T11:38:29.529Z,74.53
2022-10-10T11:41:05.939Z,75.00
2022-10-10T11:44:00.729Z,75.40
2022-10-10T11:46:36.952Z,74.53
2022-10-10T11:49:13.045Z,74.36
2022-10-10T11:51:46.566Z,74.73
2022-10-10T11:54:37.096Z,75.08
2022-10-10T11:57:12.886Z,75.36
2022-10-10T11:59:50.155Z,75.66
2022-10-10T12:02:24.498Z,75.75
2022-10-10T12:04:54.372Z,75.63
2022-10-10T12:07:31.168Z,75.65
2022-10-10T12:10:13.842Z,76.18
2022-10-10T12:12:46.212Z,76.39
2022-10-10T12:15:39.955Z,77.16
2022-10-10T12:18:25.277Z,77.40
2022-10-10T12:21:06.571Z,77.61
2022-10-10T12:23:33.769Z,77.85
2022-10-10T12:26:00.884Z,78.31
2022-10-10T12:28:54.649Z,78.61
2022-10-10T12:31:29.414Z,79.10
2022-10-10T12:34:29.813Z,79.76
2022-10-10T12:37:10.897Z,79.94
2022-10-10T12:39:39.733Z,80.05
2022-10-10T12:42:27.594Z,80.43
2022-10-10T12:44:54.503Z,80.87
2022-10-10T12:47:46.221Z,81.17
2022-10-10T12:50:41.839Z,81.44
2022-10-10T12:53:21.144Z,81.72
2022-10-10T12:55:56.554Z,82.10
2022-10-10T12:58:28.805Z,82.03
2022-10-10T13:01:00.859Z,82.19
2022-10-10T13:03:34.844Z,82.23
2022-10-10T13:06:24.540Z,82.47
2022-10-10T13:08:53.624Z,82.67
2022-10-10T13:11:20.455Z,82.95
2022-10-10T13:13:55.555Z,83.09
2022-10-10T13:16:27.673Z,83.30
2022-10-10T13:18:59.794Z,83.58
2022-10-10T13:21:29.113Z,83.80
2022-10-10T13:24:03.491Z,83.96
2022-10-10T13:26:40.429Z,84.13
2022-10-10T13:29:15.752Z,84.06
2022-10-10T13:31:43.570Z,84.39
2022-10-10T13:34:16.655Z,84.40
2022-10-10T13:36:43.735Z,84.61
2022-10-10T13:39:16.485Z,84.72
2022-10-10T13:41:47.749Z,84.98
2022-10-10T13:44:17.016Z,85.22
2022-10-10T13:46:43.816Z,85.24
2022-10-10T13:49:27.676Z,84.97
2022-10-10T13:52:06.372Z,84.81
2022-10-10T13:54:48.199Z,84.96
2022-10-10T13:57:27.111Z,84.32
2022-10-10T14:00:05.009Z,84.67
2022-10-10T14:02:34.595Z,84.67
2022-10-10T14:05:06.798Z,85.00
2022-10-10T14:07:34.547Z,85.13
2022-10-10T14:10:14.294Z,85.34
2022-10-10T14:12:52.143Z,85.68
2022-10-10T14:15:30.972Z,85.56
2022-10-10T14:17:57.728Z,86.00
2022-10-10T14:20:24.564Z,85.91
2022-10-10T14:22:52.016Z,86.43
2022-10-10T14:25:18.834Z,86.71
2022-10-10T14:27:45.865Z,86.81
2022-10-10T14:30:15.629Z,86.90
2022-10-10T14:32:42.337Z,87.20
2022-10-10T14:35:09.776Z,86.82
2022-10-10T14:37:38.737Z,86.66
2022-10-10T14:40:20.332Z,86.81
2022-10-10T14:42:47.710Z,86.72
2022-10-10T14:45:16.753Z,86.73
2022-10-10T14:47:43.484Z,86.41
2022-10-10T14:50:21.765Z,86.67
2022-10-10T14:52:48.439Z,86.40
2022-10-10T14:55:15.538Z,86.16
2022-10-10T14:57:42.335Z,85.51
2022-10-10T15:00:16.571Z,85.11
2022-10-10T15:02:45.590Z,85.21
2022-10-10T15:05:13.544Z,85.13
2022-10-10T15:07:40.660Z,85.01
2022-10-10T15:10:32.702Z,84.96
2022-10-10T15:12:55.726Z,85.00
2022-10-10T15:15:22.550Z,84.24
2022-10-10T15:17:49.957Z,84.46
2022-10-10T15:20:17.129Z,83.93
2022-10-10T15:22:46.131Z,83.65
2022-10-10T15:25:13.035Z,83.41
2022-10-10T15:27:39.840Z,83.13
2022-10-10T15:30:07.491Z,82.82
2022-10-10T15:32:38.005Z,82.99
2022-10-10T15:35:05.012Z,82.95
2022-10-10T15:37:31.764Z,82.98
2022-10-10T15:39:58.616Z,82.51
2022-10-10T15:42:25.506Z,82.59
2022-10-10T15:44:52.403Z,82.81
2022-10-10T15:47:20.469Z,83.11
2022-10-10T15:49:48.404Z,83.40
2022-10-10T15:52:15.371Z,83.01
2022-10-10T15:54:42.239Z,83.07
2022-10-10T15:57:09.058Z,82.97
2022-10-10T15:59:37.984Z,82.19
2022-10-10T16:02:07.394Z,82.19
2022-10-10T16:04:34.165Z,82.23
2022-10-10T16:09:47.766Z,82.14
2022-10-10T16:12:14.620Z,82.01
2022-10-10T16:14:41.331Z,82.26
2022-10-10T16:17:08.156Z,82.15
2022-10-10T16:19:35.022Z,82.02
2022-10-10T16:22:01.770Z,81.98
2022-10-10T16:24:28.561Z,81.99
2022-10-10T16:26:56.046Z,82.49
2022-10-10T16:29:22.816Z,82.48
2022-10-10T16:31:49.616Z,82.41
2022-10-10T16:34:17.506Z,82.46
2022-10-10T16:36:44.633Z,82.38
2022-10-10T16:39:12.887Z,82.63
2022-10-10T16:41:47.976Z,82.89
2022-10-10T16:44:16.071Z,82.77
2022-10-10T16:46:43.230Z,82.81
2022-10-10T16:49:13.062Z,82.77
2022-10-10T16:51:39.783Z,82.77
2022-10-10T16:54:06.706Z,82.80
2022-10-10T16:56:34.288Z,82.80
2022-10-10T16:59:01.812Z,82.74
2022-10-10T17:01:28.851Z,82.72
2022-10-10T17:03:59.131Z,82.64
2022-10-10T17:06:34.928Z,82.83
2022-10-10T17:09:02.996Z,82.90
2022-10-10T17:11:30.103Z,82.92
2022-10-10T17:13:56.933Z,82.80
2022-10-10T17:19:13.516Z,82.84
2022-10-10T17:21:40.463Z,82.94
2022-10-10T17:24:07.455Z,82.98
2022-10-10T17:26:34.247Z,83.10
2022-10-10T17:29:01.038Z,83.07
2022-10-10T17:31:28.466Z,83.17
2022-10-10T17:33:57.491Z,83.38
2022-10-10T17:36:26.140Z,83.03
2022-10-10T17:38:53.194Z,83.21
2022-10-10T17:41:21.193Z,83.37
2022-10-10T17:43:48.130Z,83.51
2022-10-10T17:46:37.741Z,83.69
2022-10-10T17:49:07.671Z,83.78
2022-10-10T17:51:36.096Z,83.84
2022-10-10T17:54:04.608Z,83.89
2022-10-10T17:56:32.254Z,83.81
2022-10-10T17:59:01.773Z,83.98
2022-10-10T18:01:31.056Z,83.95
2022-10-10T18:03:59.093Z,83.89
2022-10-10T18:06:26.149Z,83.99
2022-10-10T18:08:54.221Z,83.94
2022-10-10T18:11:24.029Z,83.91
2022-10-10T18:13:51.766Z,84.01
2022-10-10T18:16:22.276Z,84.05
2022-10-10T18:18:51.936Z,84.22
2022-10-10T18:21:23.389Z,84.08
2022-10-10T18:23:50.983Z,84.17
2022-10-10T18:26:21.059Z,84.22
2022-10-10T18:28:49.144Z,84.57
2022-10-10T18:31:19.350Z,85.11
2022-10-10T18:33:46.833Z,84.95
2022-10-10T18:36:16.756Z,85.00
2022-10-10T18:38:43.623Z,84.88
2022-10-10T18:41:13.741Z,84.68
2022-10-10T18:43:41.954Z,84.74
2022-10-10T18:46:11.147Z,84.89
2022-10-10T18:48:38.761Z,84.63
2022-10-10T18:51:09.114Z,84.55
2022-10-10T18:53:37.577Z,84.88
2022-10-10T18:56:05.273Z,84.71
2022-10-10T18:58:34.039Z,84.89
2022-10-10T19:01:03.522Z,85.06
2022-10-10T19:03:31.530Z,85.17
2022-10-10T19:05:58.859Z,84.96
2022-10-10T19:08:25.722Z,85.19
2022-10-10T19:10:52.602Z,85.32
2022-10-10T19:13:20.398Z,85.18
2022-10-10T19:15:49.996Z,85.15
2022-10-10T19:18:17.176Z,85.01
2022-10-10T19:20:44.432Z,85.23
2022-10-10T19:23:14.149Z,85.20
2022-10-10T19:25:43.255Z,85.25
2022-10-10T19:28:10.519Z,85.18
2022-10-10T19:30:42.789Z,85.01
2022-10-10T19:33:10.920Z,85.20
2022-10-10T19:35:40.141Z,85.27
2022-10-10T19:38:08.542Z,84.98
2022-10-10T19:40:43.068Z,85.25
2022-10-10T19:43:09.938Z,84.97
2022-10-10T19:45:44.588Z,85.15
2022-10-10T19:48:11.456Z,84.95
2022-10-10T19:50:40.096Z,85.05
2022-10-10T19:53:08.532Z,85.04
2022-10-10T19:55:35.583Z,84.98
2022-10-10T19:58:03.010Z,84.83
2022-10-10T20:00:29.887Z,85.00
2022-10-10T20:02:56.809Z,84.83
2022-10-10T20:05:23.931Z,85.18
2022-10-10T20:07:51.279Z,85.23
2022-10-10T20:10:19.112Z,85.07
2022-10-10T20:12:46.629Z,85.17
2022-10-10T20:15:13.525Z,84.85
2022-10-10T20:17:40.556Z,85.04
2022-10-10T20:20:08.020Z,85.24
2022-10-10T20:22:35.162Z,85.37
2022-10-10T20:25:02.163Z,85.77
2022-10-10T20:27:31.218Z,85.34
2022-10-10T20:29:58.860Z,85.45
2022-10-10T20:32:25.851Z,85.68
2022-10-10T20:34:52.671Z,85.80
2022-10-10T20:37:19.420Z,86.37
2022-10-10T20:39:46.754Z,86.52
2022-10-10T20:42:13.691Z,86.22
2022-10-10T20:44:40.652Z,86.38
2022-10-10T20:47:07.467Z,86.00
2022-10-10T20:49:35.067Z,86.26
2022-10-10T20:52:01.846Z,86.20
2022-10-10T20:54:28.735Z,86.24
2022-10-10T20:56:55.544Z,85.87
2022-10-10T20:59:24.630Z,86.38
2022-10-10T21:01:51.590Z,86.33
2022-10-10T21:04:18.611Z,86.36
2022-10-10T21:06:45.492Z,86.32
2022-10-10T21:09:15.011Z,86.31
2022-10-10T21:11:42.444Z,85.94
2022-10-10T21:14:10.923Z,86.01
2022-10-10T21:16:40.066Z,86.01
2022-10-10T21:19:09.407Z,85.87
2022-10-10T21:21:37.092Z,85.99
2022-10-10T21:24:05.914Z,85.69
2022-10-10T21:26:33.235Z,85.97
2022-10-10T21:29:01.307Z,86.21
2022-10-10T21:31:36.814Z,86.15
2022-10-10T21:34:07.681Z,86.08
2022-10-10T21:36:36.403Z,85.96
2022-10-10T21:39:06.763Z,86.57
2022-10-10T21:41:34.284Z,86.41
2022-10-10T21:44:01.084Z,86.29
2022-10-10T21:46:35.612Z,86.29
2022-10-10T21:49:06.530Z,86.52
2022-10-10T21:51:39.220Z,86.41
2022-10-10T21:54:06.519Z,86.18
2022-10-10T21:56:33.995Z,86.42
2022-10-10T21:59:01.591Z,86.03
2022-10-10T22:01:29.542Z,86.40
2022-10-10T22:03:56.594Z,86.21
2022-10-10T22:06:24.189Z,86.24
2022-10-10T22:08:52.544Z,86.11
2022-10-10T22:11:23.076Z,86.42
2022-10-10T22:13:50.865Z,86.46
2022-10-10T22:16:19.489Z,86.31
2022-10-10T22:18:46.260Z,85.95
2022-10-10T22:21:16.065Z,86.21
2022-10-10T22:23:44.146Z,86.41
2022-10-10T22:26:13.175Z,85.96
2022-10-10T22:28:40.227Z,86.45
2022-10-10T22:31:08.996Z,86.34
2022-10-10T22:33:35.844Z,86.22
2022-10-10T22:36:05.052Z,86.46
2022-10-10T22:38:32.405Z,86.43
2022-10-10T22:40:59.300Z,86.62
2022-10-10T22:43:27.092Z,86.12
2022-10-10T22:45:54.198Z,86.24
2022-10-10T22:48:21.050Z,86.31
2022-10-10T22:50:47.861Z,86.29
2022-10-10T22:53:14.682Z,86.18
2022-10-10T22:55:41.535Z,86.29
2022-10-10T22:58:08.295Z,86.43
2022-10-10T23:00:35.211Z,86.76
2022-10-10T23:03:02.018Z,86.74
2022-10-10T23:05:32.987Z,86.52
2022-10-10T23:07:59.811Z,86.63
2022-10-10T23:10:26.614Z,86.64
2022-10-10T23:12:53.427Z,86.72
2022-10-10T23:15:20.229Z,86.63
2022-10-10T23:17:46.956Z,86.90
2022-10-10T23:20:13.893Z,86.72
2022-10-10T23:22:40.727Z,86.63
2022-10-10T23:25:07.702Z,86.78
2022-10-10T23:27:35.751Z,86.75
2022-10-10T23:30:02.536Z,86.44
2022-10-10T23:32:30.458Z,86.76
2022-10-10T23:34:57.306Z,86.53
2022-10-10T23:37:25.411Z,86.32
2022-10-10T23:39:52.141Z,86.65
2022-10-10T23:42:18.907Z,86.63
2022-10-10T23:44:45.708Z,86.94
2022-10-10T23:47:12.574Z,86.84
2022-10-10T23:49:39.414Z,86.59
2022-10-10T23:52:06.158Z,86.66
2022-10-10T23:54:33.053Z,86.52
2022-10-10T23:57:00.092Z,86.45
2022-10-10T23:59:26.861Z,86.79
